Main page
Satellite images 15-day forecastsClimateMarine weather Cyclones Lightning AirportsFAQ Newsletter About
Weather : Europe Africa North America South America Asia Australia-Oceania Others
Languages Contact

Alpine, Texas, United States

Alpine-Casparis Municipal Airport

latitude: 30-23-03N, longitude: 103-41-00W, elevation: 1376 m


METAR: KE38 300235Z AUTO 14013G16KT 10SM CLR 28/12 A3019 RMK AO2 T02800119
short-TAF: missing
long-TAF: missing

Time: 21:56 (02:56 UTC)

Current weather observation

The report was made 21 minutes ago, at 02:35 UTC  
Wind 13 kt from the Southeast with gusts up to 16 kt
Temperature 28°C
Humidity 37%
Pressure 1022 hPa
Visibility 16.1 km
Clear sky

Change units
The information on this site is subject to a disclaimer
Weather : Europe Africa North America South America Asia Australia-Oceania Others
Satellite images 15-day forecastsClimateMarine weather Cyclones Lightning AirportsFAQ Languages Contact Newsletter About